createdAt,value
2023-01-11T00:04:19.528Z,0.8
2023-01-11T00:09:42.592Z,0.8
2023-01-11T00:14:49.943Z,0.7
2023-01-11T00:20:12.284Z,0.6
2023-01-11T00:25:18.952Z,0.7
2023-01-11T00:30:42.055Z,0.8
2023-01-11T00:36:04.708Z,0.7
2023-01-11T00:41:27.343Z,0.6
2023-01-11T00:46:50.265Z,0.6
2023-01-11T00:52:12.916Z,0.6
2023-01-11T00:57:35.836Z,0.5
2023-01-11T01:02:43.132Z,0.5
2023-01-11T01:07:49.206Z,0.5
2023-01-11T01:12:55.543Z,0.6
2023-01-11T01:18:02.499Z,0.6
2023-01-11T01:23:24.811Z,0.6
2023-01-11T01:28:31.634Z,0.6
2023-01-11T01:33:53.728Z,0.6
2023-01-11T01:39:00.235Z,0.6
2023-01-11T01:43:35.927Z,0.6
2023-01-11T01:48:26.768Z,0.5
2023-01-11T01:53:33.981Z,0.5
2023-01-11T01:58:40.297Z,0.4
2023-01-11T02:03:32.815Z,0.5
2023-01-11T02:08:39.659Z,0.6
2023-01-11T02:13:30.711Z,0.7
2023-01-11T02:18:37.807Z,0.7
2023-01-11T02:23:45.119Z,0.8
2023-01-11T02:28:52.497Z,0.9
2023-01-11T02:33:59.453Z,0.9
2023-01-11T02:39:22.014Z,0.9
2023-01-11T02:44:29.056Z,0.9
2023-01-11T02:49:21.306Z,0.8
2023-01-11T02:54:43.793Z,0.7
2023-01-11T02:59:50.757Z,0.9
2023-01-11T03:05:13.414Z,1.1
2023-01-11T03:10:05.791Z,1.1
2023-01-11T03:15:12.593Z,1.1
2023-01-11T03:20:35.969Z,1.1
2023-01-11T03:25:58.700Z,1.2
2023-01-11T03:31:21.115Z,1.3
2023-01-11T03:36:43.095Z,1.4
2023-01-11T03:41:49.907Z,1.6
2023-01-11T03:47:12.695Z,1.6
2023-01-11T03:52:35.112Z,1.6
2023-01-11T03:57:57.465Z,1.6
2023-01-11T04:03:04.370Z,1.7
2023-01-11T04:08:11.527Z,1.7
2023-01-11T04:13:34.287Z,1.7
2023-01-11T04:18:25.995Z,1.6
2023-01-11T04:23:48.365Z,1.6
2023-01-11T04:29:11.054Z,1.6
2023-01-11T04:34:18.277Z,1.6
2023-01-11T04:39:40.834Z,1.6
2023-01-11T04:45:06.654Z,1.7
2023-01-11T04:50:29.231Z,1.7
2023-01-11T04:55:51.494Z,1.7
2023-01-11T05:01:15.227Z,1.7
2023-01-11T05:06:37.874Z,1.6
2023-01-11T05:11:59.721Z,1.7
2023-01-11T05:17:06.440Z,1.7
2023-01-11T05:22:13.007Z,1.6
2023-01-11T05:27:20.191Z,1.6
2023-01-11T05:32:27.143Z,1.6
2023-01-11T05:37:33.735Z,1.7
2023-01-11T05:42:56.508Z,1.6
2023-01-11T05:48:19.049Z,1.8
2023-01-11T05:53:41.182Z,1.8
2023-01-11T05:59:03.937Z,1.8
2023-01-11T06:04:27.104Z,1.8
2023-01-11T06:09:48.947Z,1.8
2023-01-11T06:14:56.457Z,1.8
2023-01-11T06:20:19.943Z,1.8
2023-01-11T06:25:26.397Z,1.8
2023-01-11T06:30:51.514Z,1.8
2023-01-11T06:36:14.211Z,1.9
2023-01-11T06:41:35.993Z,2
2023-01-11T06:47:01.253Z,2.1
2023-01-11T06:52:24.346Z,2.2
2023-01-11T06:57:47.210Z,2.3
2023-01-11T07:03:12.400Z,2.4
2023-01-11T07:08:35.160Z,2.4
2023-01-11T07:13:57.947Z,2.5
2023-01-11T07:19:20.444Z,2.6
2023-01-11T07:24:42.969Z,2.8
2023-01-11T07:30:04.252Z,2.9
2023-01-11T07:35:45.532Z,3
2023-01-11T07:41:40.159Z,3.1
2023-01-11T07:47:14.980Z,3.1
2023-01-11T07:52:22.459Z,2.9
2023-01-11T07:57:45.290Z,3.1
2023-01-11T08:03:08.396Z,3.4
2023-01-11T08:08:31.714Z,3.8
2023-01-11T08:13:56.540Z,3.7
2023-01-11T08:19:19.306Z,4.1
2023-01-11T08:24:41.927Z,4.7
2023-01-11T08:30:04.977Z,4.7
2023-01-11T08:35:28.132Z,5.2
2023-01-11T08:40:50.731Z,4.8
2023-01-11T08:46:20.246Z,4.8
2023-01-11T08:51:42.310Z,5.7
2023-01-11T08:57:05.296Z,5.4
2023-01-11T09:02:29.165Z,6
2023-01-11T09:08:06.631Z,5.7
2023-01-11T09:13:28.932Z,5.3
2023-01-11T09:18:52.195Z,5
2023-01-11T09:24:14.437Z,4.7
2023-01-11T09:29:06.133Z,4.4
2023-01-11T09:34:29.335Z,4.3
2023-01-11T09:39:53.011Z,4.6
2023-01-11T09:45:16.933Z,4.7
2023-01-11T09:50:26.552Z,4.8
2023-01-11T09:55:49.654Z,4.9
2023-01-11T10:01:13.019Z,5.2
2023-01-11T10:06:39.570Z,5.4
2023-01-11T10:22:51.353Z,5
2023-01-11T10:28:14.503Z,5.2
2023-01-11T10:33:36.705Z,5.1
2023-01-11T10:38:59.778Z,5.1
2023-01-11T10:44:22.638Z,5.3
2023-01-11T10:49:29.679Z,5.5
2023-01-11T10:54:56.497Z,5.9
2023-01-11T11:00:23.314Z,6.1
2023-01-11T11:05:49.277Z,5.7
2023-01-11T11:10:56.841Z,5.8
2023-01-11T11:16:21.091Z,5.6
2023-01-11T11:21:28.601Z,5.6
2023-01-11T11:26:51.988Z,5.4
2023-01-11T11:31:59.232Z,5.5
2023-01-11T11:37:23.086Z,5.7
2023-01-11T11:42:46.216Z,5.7
2023-01-11T11:48:09.135Z,5.4
2023-01-11T11:53:52.015Z,5.6
2023-01-11T11:59:15.090Z,4.9
2023-01-11T12:04:37.795Z,5.3
2023-01-11T12:09:55.904Z,4.9
2023-01-11T12:15:22.234Z,5.4
2023-01-11T12:20:44.721Z,5.6
2023-01-11T12:26:07.339Z,5.6
2023-01-11T12:31:30.743Z,5.1
2023-01-11T12:36:22.069Z,5
2023-01-11T12:41:13.123Z,4.9
2023-01-11T12:46:19.556Z,5
2023-01-11T12:51:43.101Z,5.1
2023-01-11T12:57:05.591Z,4.9
2023-01-11T13:02:30.650Z,4.9
2023-01-11T13:07:58.022Z,5.1
2023-01-11T13:13:05.534Z,5.3
2023-01-11T13:18:28.039Z,5.2
2023-01-11T13:24:10.045Z,5.1
2023-01-11T13:29:37.286Z,5.1
2023-01-11T13:35:00.290Z,4.9
2023-01-11T13:40:36.890Z,5
2023-01-11T13:45:59.059Z,4.9
2023-01-11T13:51:06.180Z,4.9
2023-01-11T13:56:33.798Z,4.9
2023-01-11T14:01:56.453Z,4.7
2023-01-11T14:07:19.281Z,4.6
2023-01-11T14:12:42.543Z,4.6
2023-01-11T14:18:05.774Z,4.7
2023-01-11T14:23:28.777Z,4.5
2023-01-11T14:28:51.597Z,4.4
2023-01-11T14:34:14.942Z,4.4
2023-01-11T14:39:37.445Z,4.3
2023-01-11T14:45:10.228Z,4.2
2023-01-11T14:50:33.436Z,4.2
2023-01-11T14:56:17.536Z,4.1
2023-01-11T15:01:43.336Z,4.1
2023-01-11T15:07:06.315Z,3.8
2023-01-11T15:12:28.404Z,3.7
2023-01-11T15:17:51.602Z,3.6
2023-01-11T15:23:00.552Z,3.6
2023-01-11T15:28:25.177Z,3.5
2023-01-11T15:33:48.248Z,3.4
2023-01-11T15:39:10.876Z,3.4
2023-01-11T15:44:17.365Z,3.4
2023-01-11T15:49:40.303Z,3.3
2023-01-11T15:55:03.660Z,3.3
2023-01-11T16:00:10.701Z,3.3
2023-01-11T16:05:35.537Z,3.3
2023-01-11T16:10:42.430Z,3.3
2023-01-11T16:15:49.673Z,3.3
2023-01-11T16:25:34.257Z,3.3
2023-01-11T16:30:58.615Z,3.3
2023-01-11T16:36:08.155Z,3.2
2023-01-11T16:41:30.270Z,3.2
2023-01-11T16:46:53.099Z,3.2
2023-01-11T16:52:16.233Z,3.1
2023-01-11T16:57:23.471Z,3.1
2023-01-11T17:02:31.444Z,3.1
2023-01-11T17:07:47.831Z,3
2023-01-11T17:13:16.499Z,3.1
2023-01-11T17:18:24.922Z,3.1
2023-01-11T17:23:48.009Z,3.1
2023-01-11T17:29:13.378Z,3.1
2023-01-11T17:34:36.097Z,3
2023-01-11T17:39:46.280Z,3
2023-01-11T17:45:09.746Z,3.1
2023-01-11T17:50:32.207Z,3
2023-01-11T17:55:31.726Z,2.9
2023-01-11T18:00:38.991Z,3
2023-01-11T18:06:04.057Z,2.9
2023-01-11T18:11:29.342Z,2.9
2023-01-11T18:16:38.067Z,2.8
2023-01-11T18:22:03.461Z,2.8
2023-01-11T18:27:27.636Z,2.8
2023-01-11T18:32:52.659Z,2.8
2023-01-11T18:38:01.346Z,2.9
2023-01-11T18:43:13.822Z,2.9
2023-01-11T18:48:38.658Z,2.9
2023-01-11T18:54:04.365Z,2.9
2023-01-11T18:59:29.201Z,2.9
2023-01-11T19:05:16.151Z,2.9
2023-01-11T19:10:43.749Z,2.8
2023-01-11T19:16:10.878Z,2.8
2023-01-11T19:21:40.260Z,2.7
2023-01-11T19:27:15.037Z,2.7
2023-01-11T19:32:34.526Z,2.7
2023-01-11T19:37:49.627Z,2.6
2023-01-11T19:43:06.268Z,2.6
2023-01-11T19:48:44.521Z,2.6
2023-01-11T19:54:13.667Z,2.6
2023-01-11T19:59:24.404Z,2.6
2023-01-11T20:04:53.487Z,2.6
2023-01-11T20:10:19.607Z,2.6
2023-01-11T20:15:31.256Z,2.6
2023-01-11T20:20:57.400Z,2.5
2023-01-11T20:25:52.127Z,2.6
2023-01-11T20:31:19.458Z,2.6
2023-01-11T20:37:11.004Z,2.5
2023-01-11T20:42:36.196Z,2.5
2023-01-11T20:47:47.543Z,2.5
2023-01-11T20:52:56.390Z,2.5
2023-01-11T20:58:20.249Z,2.4
2023-01-11T21:03:46.147Z,2.4
2023-01-11T21:09:10.597Z,2.4
2023-01-11T21:14:18.216Z,2.3
2023-01-11T21:19:41.977Z,2.3
2023-01-11T21:24:49.882Z,2.3
2023-01-11T21:30:13.458Z,2.2
2023-01-11T21:35:36.190Z,2.1
2023-01-11T21:40:59.491Z,2.1
2023-01-11T21:46:22.390Z,2.1
2023-01-11T21:51:45.159Z,2
2023-01-11T21:57:08.631Z,1.9
2023-01-11T22:01:59.330Z,1.8
2023-01-11T22:07:06.746Z,1.8
2023-01-11T22:12:41.254Z,1.7
2023-01-11T22:18:03.989Z,1.6
2023-01-11T22:23:26.852Z,1.5
2023-01-11T22:28:50.182Z,1.5
2023-01-11T22:34:13.303Z,1.4
2023-01-11T22:39:35.929Z,1.4
2023-01-11T22:44:58.421Z,1.3
2023-01-11T22:50:20.999Z,1.3
2023-01-11T22:55:28.196Z,1.3
2023-01-11T23:00:35.576Z,1.3
2023-01-11T23:05:43.352Z,1.3
2023-01-11T23:11:05.691Z,1.3
2023-01-11T23:16:14.954Z,1.4
2023-01-11T23:21:37.223Z,1.4
2023-01-11T23:27:00.267Z,1.4
2023-01-11T23:37:14.487Z,1.5
2023-01-11T23:42:21.755Z,1.6
2023-01-11T23:47:44.652Z,1.6
2023-01-11T23:53:06.098Z,1.6
2023-01-11T23:58:29.666Z,1.6
